sensor_id;sensor_type;location;lat;lon;timestamp;temperature;humidity
13616;DHT22;6879;51.368;6.782;2022-11-23T00:02:17;8.60;99.90
13616;DHT22;6879;51.368;6.782;2022-11-23T00:04:47;8.70;99.90
13616;DHT22;6879;51.368;6.782;2022-11-23T00:07:15;8.60;99.90
13616;DHT22;6879;51.368;6.782;2022-11-23T00:09:44;8.70;99.90
13616;DHT22;6879;51.368;6.782;2022-11-23T00:12:12;8.70;99.90
13616;DHT22;6879;51.368;6.782;2022-11-23T00:14:41;8.70;99.90
13616;DHT22;6879;51.368;6.782;2022-11-23T00:17:09;8.80;99.90
13616;DHT22;6879;51.368;6.782;2022-11-23T00:19:38;8.80;99.90
13616;DHT22;6879;51.368;6.782;2022-11-23T00:22:08;8.80;99.90
13616;DHT22;6879;51.368;6.782;2022-11-23T00:24:37;8.90;99.90
13616;DHT22;6879;51.368;6.782;2022-11-23T00:27:05;8.90;99.90
13616;DHT22;6879;51.368;6.782;2022-11-23T00:29:34;8.90;99.90
13616;DHT22;6879;51.368;6.782;2022-11-23T00:32:02;9.00;99.90
13616;DHT22;6879;51.368;6.782;2022-11-23T00:34:33;9.00;99.90
13616;DHT22;6879;51.368;6.782;2022-11-23T00:37:01;9.10;99.90
13616;DHT22;6879;51.368;6.782;2022-11-23T00:39:32;9.10;99.90
13616;DHT22;6879;51.368;6.782;2022-11-23T00:42:00;9.10;99.90
13616;DHT22;6879;51.368;6.782;2022-11-23T00:44:29;9.20;99.90
13616;DHT22;6879;51.368;6.782;2022-11-23T00:46:58;9.20;99.90
13616;DHT22;6879;51.368;6.782;2022-11-23T00:49:27;9.20;99.90
13616;DHT22;6879;51.368;6.782;2022-11-23T00:51:56;9.20;99.90
13616;DHT22;6879;51.368;6.782;2022-11-23T00:54:25;9.20;99.90
13616;DHT22;6879;51.368;6.782;2022-11-23T00:56:55;9.20;99.90
13616;DHT22;6879;51.368;6.782;2022-11-23T00:59:24;9.10;99.90
13616;DHT22;6879;51.368;6.782;2022-11-23T01:01:56;9.00;99.90
13616;DHT22;6879;51.368;6.782;2022-11-23T01:04:25;9.00;99.90
13616;DHT22;6879;51.368;6.782;2022-11-23T01:06:58;9.00;99.90
13616;DHT22;6879;51.368;6.782;2022-11-23T01:09:26;9.00;99.90
13616;DHT22;6879;51.368;6.782;2022-11-23T01:11:57;9.00;99.90
13616;DHT22;6879;51.368;6.782;2022-11-23T01:14:26;9.00;99.90
13616;DHT22;6879;51.368;6.782;2022-11-23T01:16:55;9.00;99.90
13616;DHT22;6879;51.368;6.782;2022-11-23T01:19:24;9.00;99.90
13616;DHT22;6879;51.368;6.782;2022-11-23T01:21:53;9.00;99.90
13616;DHT22;6879;51.368;6.782;2022-11-23T01:24:23;9.10;99.90
13616;DHT22;6879;51.368;6.782;2022-11-23T01:26:54;9.10;99.90
13616;DHT22;6879;51.368;6.782;2022-11-23T01:29:25;9.10;99.90
13616;DHT22;6879;51.368;6.782;2022-11-23T01:31:53;9.10;99.90
13616;DHT22;6879;51.368;6.782;2022-11-23T01:34:23;9.20;99.90
13616;DHT22;6879;51.368;6.782;2022-11-23T01:36:52;9.20;99.90
13616;DHT22;6879;51.368;6.782;2022-11-23T01:39:20;9.20;99.90
13616;DHT22;6879;51.368;6.782;2022-11-23T01:41:49;9.30;99.90
13616;DHT22;6879;51.368;6.782;2022-11-23T01:44:25;9.30;99.90
13616;DHT22;6879;51.368;6.782;2022-11-23T01:46:56;9.20;99.90
13616;DHT22;6879;51.368;6.782;2022-11-23T01:49:26;9.20;99.90
13616;DHT22;6879;51.368;6.782;2022-11-23T01:51:58;9.30;99.90
13616;DHT22;6879;51.368;6.782;2022-11-23T01:54:31;9.30;99.90
13616;DHT22;6879;51.368;6.782;2022-11-23T01:57:05;9.40;99.90
13616;DHT22;6879;51.368;6.782;2022-11-23T01:59:36;9.40;99.90
13616;DHT22;6879;51.368;6.782;2022-11-23T02:02:06;9.40;99.90
13616;DHT22;6879;51.368;6.782;2022-11-23T02:04:38;9.50;99.90
13616;DHT22;6879;51.368;6.782;2022-11-23T02:07:08;9.50;99.90
13616;DHT22;6879;51.368;6.782;2022-11-23T02:09:38;9.50;99.90
13616;DHT22;6879;51.368;6.782;2022-11-23T02:12:10;9.50;99.90
13616;DHT22;6879;51.368;6.782;2022-11-23T02:14:41;9.50;99.90
13616;DHT22;6879;51.368;6.782;2022-11-23T02:17:10;9.50;99.90
13616;DHT22;6879;51.368;6.782;2022-11-23T02:19:45;9.50;99.90
13616;DHT22;6879;51.368;6.782;2022-11-23T02:22:23;9.50;99.90
13616;DHT22;6879;51.368;6.782;2022-11-23T02:24:54;9.50;99.90
13616;DHT22;6879;51.368;6.782;2022-11-23T02:27:26;9.50;99.90
13616;DHT22;6879;51.368;6.782;2022-11-23T02:29:58;9.50;99.90
13616;DHT22;6879;51.368;6.782;2022-11-23T02:32:28;9.50;99.90
13616;DHT22;6879;51.368;6.782;2022-11-23T02:34:57;9.60;99.90
13616;DHT22;6879;51.368;6.782;2022-11-23T02:37:26;9.60;99.90
13616;DHT22;6879;51.368;6.782;2022-11-23T02:39:56;9.60;99.90
13616;DHT22;6879;51.368;6.782;2022-11-23T02:42:28;9.60;99.90
13616;DHT22;6879;51.368;6.782;2022-11-23T02:45:04;9.70;99.90
13616;DHT22;6879;51.368;6.782;2022-11-23T02:47:36;9.70;99.90
13616;DHT22;6879;51.368;6.782;2022-11-23T02:50:08;9.70;99.90
13616;DHT22;6879;51.368;6.782;2022-11-23T02:52:36;9.80;99.90
13616;DHT22;6879;51.368;6.782;2022-11-23T02:55:06;9.80;99.90
13616;DHT22;6879;51.368;6.782;2022-11-23T02:57:37;9.80;99.90
13616;DHT22;6879;51.368;6.782;2022-11-23T03:00:10;9.80;99.90
13616;DHT22;6879;51.368;6.782;2022-11-23T03:02:39;9.80;99.90
13616;DHT22;6879;51.368;6.782;2022-11-23T03:05:10;9.80;99.90
13616;DHT22;6879;51.368;6.782;2022-11-23T03:07:40;9.80;99.90
13616;DHT22;6879;51.368;6.782;2022-11-23T03:10:12;9.60;99.90
13616;DHT22;6879;51.368;6.782;2022-11-23T03:12:46;9.50;99.90
13616;DHT22;6879;51.368;6.782;2022-11-23T03:15:20;9.40;99.90
13616;DHT22;6879;51.368;6.782;2022-11-23T03:17:50;9.40;99.90
13616;DHT22;6879;51.368;6.782;2022-11-23T03:20:20;9.40;99.90
13616;DHT22;6879;51.368;6.782;2022-11-23T03:22:53;9.40;99.90
13616;DHT22;6879;51.368;6.782;2022-11-23T03:25:23;9.30;99.90
13616;DHT22;6879;51.368;6.782;2022-11-23T03:27:56;9.20;99.90
13616;DHT22;6879;51.368;6.782;2022-11-23T03:30:29;9.10;99.90
13616;DHT22;6879;51.368;6.782;2022-11-23T03:33:00;9.00;99.90
13616;DHT22;6879;51.368;6.782;2022-11-23T03:35:30;9.00;99.90
13616;DHT22;6879;51.368;6.782;2022-11-23T03:38:37;8.90;99.90
13616;DHT22;6879;51.368;6.782;2022-11-23T03:41:19;8.90;99.90
13616;DHT22;6879;51.368;6.782;2022-11-23T03:43:53;8.90;99.90
13616;DHT22;6879;51.368;6.782;2022-11-23T03:46:22;8.90;99.90
13616;DHT22;6879;51.368;6.782;2022-11-23T03:48:52;8.90;99.90
13616;DHT22;6879;51.368;6.782;2022-11-23T03:51:22;8.90;99.90
13616;DHT22;6879;51.368;6.782;2022-11-23T03:53:52;8.80;99.90
13616;DHT22;6879;51.368;6.782;2022-11-23T03:56:22;8.90;99.90
13616;DHT22;6879;51.368;6.782;2022-11-23T03:58:53;8.90;99.90
13616;DHT22;6879;51.368;6.782;2022-11-23T04:01:23;8.90;99.90
13616;DHT22;6879;51.368;6.782;2022-11-23T04:03:59;8.90;99.90
13616;DHT22;6879;51.368;6.782;2022-11-23T04:06:48;8.90;99.90
13616;DHT22;6879;51.368;6.782;2022-11-23T04:09:25;8.80;99.90
13616;DHT22;6879;51.368;6.782;2022-11-23T04:12:15;8.80;99.90
13616;DHT22;6879;51.368;6.782;2022-11-23T04:14:49;8.80;99.90
13616;DHT22;6879;51.368;6.782;2022-11-23T04:17:19;8.80;99.90
13616;DHT22;6879;51.368;6.782;2022-11-23T04:19:48;8.80;99.90
13616;DHT22;6879;51.368;6.782;2022-11-23T04:22:18;8.80;99.90
13616;DHT22;6879;51.368;6.782;2022-11-23T04:24:48;8.80;99.90
13616;DHT22;6879;51.368;6.782;2022-11-23T04:27:17;8.80;99.90
13616;DHT22;6879;51.368;6.782;2022-11-23T04:29:49;8.80;99.90
13616;DHT22;6879;51.368;6.782;2022-11-23T04:32:18;8.80;99.90
13616;DHT22;6879;51.368;6.782;2022-11-23T04:34:48;8.80;99.90
13616;DHT22;6879;51.368;6.782;2022-11-23T04:37:17;8.80;99.90
13616;DHT22;6879;51.368;6.782;2022-11-23T04:39:46;8.80;99.90
13616;DHT22;6879;51.368;6.782;2022-11-23T04:42:15;8.80;99.90
13616;DHT22;6879;51.368;6.782;2022-11-23T04:44:52;8.80;99.90
13616;DHT22;6879;51.368;6.782;2022-11-23T04:47:22;8.70;99.90
13616;DHT22;6879;51.368;6.782;2022-11-23T04:49:52;8.80;99.90
13616;DHT22;6879;51.368;6.782;2022-11-23T04:52:21;8.80;99.90
13616;DHT22;6879;51.368;6.782;2022-11-23T04:54:50;8.80;99.90
13616;DHT22;6879;51.368;6.782;2022-11-23T04:57:19;8.70;99.90
13616;DHT22;6879;51.368;6.782;2022-11-23T04:59:52;8.70;99.90
13616;DHT22;6879;51.368;6.782;2022-11-23T05:02:23;8.70;99.90
13616;DHT22;6879;51.368;6.782;2022-11-23T05:04:58;8.70;99.90
13616;DHT22;6879;51.368;6.782;2022-11-23T05:07:29;8.70;99.90
13616;DHT22;6879;51.368;6.782;2022-11-23T05:10:02;8.70;99.90
13616;DHT22;6879;51.368;6.782;2022-11-23T05:12:33;8.70;99.90
13616;DHT22;6879;51.368;6.782;2022-11-23T05:15:05;8.70;99.90
13616;DHT22;6879;51.368;6.782;2022-11-23T05:17:37;8.70;99.90
13616;DHT22;6879;51.368;6.782;2022-11-23T05:20:12;8.60;99.90
13616;DHT22;6879;51.368;6.782;2022-11-23T05:22:46;8.60;99.90
13616;DHT22;6879;51.368;6.782;2022-11-23T05:25:19;8.60;99.90
13616;DHT22;6879;51.368;6.782;2022-11-23T05:27:55;8.60;99.90
13616;DHT22;6879;51.368;6.782;2022-11-23T05:30:38;8.60;99.90
13616;DHT22;6879;51.368;6.782;2022-11-23T05:33:08;8.60;99.90
13616;DHT22;6879;51.368;6.782;2022-11-23T05:35:38;8.70;99.90
13616;DHT22;6879;51.368;6.782;2022-11-23T05:38:07;8.70;99.90
13616;DHT22;6879;51.368;6.782;2022-11-23T05:40:36;8.70;99.90
13616;DHT22;6879;51.368;6.782;2022-11-23T05:43:08;8.70;99.90
13616;DHT22;6879;51.368;6.782;2022-11-23T05:45:38;8.70;99.90
13616;DHT22;6879;51.368;6.782;2022-11-23T05:48:26;8.70;99.90
13616;DHT22;6879;51.368;6.782;2022-11-23T05:59:17;8.60;99.90
13616;DHT22;6879;51.368;6.782;2022-11-23T06:02:07;8.50;99.90
13616;DHT22;6879;51.368;6.782;2022-11-23T06:05:12;8.50;99.90
13616;DHT22;6879;51.368;6.782;2022-11-23T06:08:00;8.50;99.90
13616;DHT22;6879;51.368;6.782;2022-11-23T06:11:16;8.50;99.90
13616;DHT22;6879;51.368;6.782;2022-11-23T06:15:08;8.40;99.90
13616;DHT22;6879;51.368;6.782;2022-11-23T06:18:09;8.40;99.90
13616;DHT22;6879;51.368;6.782;2022-11-23T06:21:21;8.40;99.90
13616;DHT22;6879;51.368;6.782;2022-11-23T06:24:17;8.40;99.90
13616;DHT22;6879;51.368;6.782;2022-11-23T06:27:29;8.40;99.90
13616;DHT22;6879;51.368;6.782;2022-11-23T06:30:28;8.40;99.90
13616;DHT22;6879;51.368;6.782;2022-11-23T06:41:24;8.40;99.90
13616;DHT22;6879;51.368;6.782;2022-11-23T06:43:59;8.40;99.90
13616;DHT22;6879;51.368;6.782;2022-11-23T06:46:38;8.30;99.90
13616;DHT22;6879;51.368;6.782;2022-11-23T06:49:07;8.30;99.90
13616;DHT22;6879;51.368;6.782;2022-11-23T06:51:38;8.40;99.90
13616;DHT22;6879;51.368;6.782;2022-11-23T06:54:08;8.30;99.90
13616;DHT22;6879;51.368;6.782;2022-11-23T06:56:39;8.40;99.90
13616;DHT22;6879;51.368;6.782;2022-11-23T06:59:09;8.30;99.90
13616;DHT22;6879;51.368;6.782;2022-11-23T07:01:38;8.40;99.90
13616;DHT22;6879;51.368;6.782;2022-11-23T07:04:13;8.40;99.90
13616;DHT22;6879;51.368;6.782;2022-11-23T07:06:48;8.40;99.90
13616;DHT22;6879;51.368;6.782;2022-11-23T07:09:29;8.30;99.90
13616;DHT22;6879;51.368;6.782;2022-11-23T07:12:21;8.30;99.90
13616;DHT22;6879;51.368;6.782;2022-11-23T07:14:56;8.30;99.90
13616;DHT22;6879;51.368;6.782;2022-11-23T07:17:42;8.30;99.90
13616;DHT22;6879;51.368;6.782;2022-11-23T07:20:22;8.30;99.90
13616;DHT22;6879;51.368;6.782;2022-11-23T07:23:05;8.30;99.90
13616;DHT22;6879;51.368;6.782;2022-11-23T07:25:40;8.30;99.90
13616;DHT22;6879;51.368;6.782;2022-11-23T07:28:16;8.30;99.90
13616;DHT22;6879;51.368;6.782;2022-11-23T07:30:52;8.40;99.90
13616;DHT22;6879;51.368;6.782;2022-11-23T07:33:25;8.40;99.90
13616;DHT22;6879;51.368;6.782;2022-11-23T07:35:59;8.40;99.90
13616;DHT22;6879;51.368;6.782;2022-11-23T07:38:30;8.40;99.90
13616;DHT22;6879;51.368;6.782;2022-11-23T07:41:03;8.40;99.90
13616;DHT22;6879;51.368;6.782;2022-11-23T07:44:06;8.40;99.90
13616;DHT22;6879;51.368;6.782;2022-11-23T07:46:36;8.40;99.90
13616;DHT22;6879;51.368;6.782;2022-11-23T07:49:05;8.50;99.90
13616;DHT22;6879;51.368;6.782;2022-11-23T07:51:34;8.50;99.90
13616;DHT22;6879;51.368;6.782;2022-11-23T07:54:08;8.50;99.90
13616;DHT22;6879;51.368;6.782;2022-11-23T07:56:40;8.50;99.90
13616;DHT22;6879;51.368;6.782;2022-11-23T07:59:21;8.60;99.90
13616;DHT22;6879;51.368;6.782;2022-11-23T08:02:00;8.60;99.90
13616;DHT22;6879;51.368;6.782;2022-11-23T08:04:29;8.70;99.90
13616;DHT22;6879;51.368;6.782;2022-11-23T08:06:59;8.70;99.90
13616;DHT22;6879;51.368;6.782;2022-11-23T08:09:28;8.70;99.90
13616;DHT22;6879;51.368;6.782;2022-11-23T08:11:58;8.80;99.90
13616;DHT22;6879;51.368;6.782;2022-11-23T08:14:29;8.80;99.90
13616;DHT22;6879;51.368;6.782;2022-11-23T08:16:58;8.90;99.90
13616;DHT22;6879;51.368;6.782;2022-11-23T08:19:27;9.00;99.90
13616;DHT22;6879;51.368;6.782;2022-11-23T08:21:59;9.10;99.90
13616;DHT22;6879;51.368;6.782;2022-11-23T08:24:27;9.20;99.90
13616;DHT22;6879;51.368;6.782;2022-11-23T08:26:57;9.30;99.90
13616;DHT22;6879;51.368;6.782;2022-11-23T08:29:27;9.30;99.90
13616;DHT22;6879;51.368;6.782;2022-11-23T08:31:57;9.40;99.90
13616;DHT22;6879;51.368;6.782;2022-11-23T08:34:26;9.40;99.90
13616;DHT22;6879;51.368;6.782;2022-11-23T08:36:56;9.40;99.90
13616;DHT22;6879;51.368;6.782;2022-11-23T08:39:24;9.40;99.90
13616;DHT22;6879;51.368;6.782;2022-11-23T08:41:53;9.50;99.90
13616;DHT22;6879;51.368;6.782;2022-11-23T08:44:21;9.50;99.90
13616;DHT22;6879;51.368;6.782;2022-11-23T08:46:52;9.60;99.90
13616;DHT22;6879;51.368;6.782;2022-11-23T08:49:23;9.60;99.90
13616;DHT22;6879;51.368;6.782;2022-11-23T08:51:51;9.50;99.90
13616;DHT22;6879;51.368;6.782;2022-11-23T08:54:20;9.50;99.90
13616;DHT22;6879;51.368;6.782;2022-11-23T08:56:50;9.50;99.90
13616;DHT22;6879;51.368;6.782;2022-11-23T08:59:22;9.50;99.90
13616;DHT22;6879;51.368;6.782;2022-11-23T09:01:52;9.50;99.90
13616;DHT22;6879;51.368;6.782;2022-11-23T09:04:20;9.50;99.90
13616;DHT22;6879;51.368;6.782;2022-11-23T09:06:49;9.50;99.90
13616;DHT22;6879;51.368;6.782;2022-11-23T09:09:18;9.50;99.90
13616;DHT22;6879;51.368;6.782;2022-11-23T09:11:46;9.60;99.90
13616;DHT22;6879;51.368;6.782;2022-11-23T09:14:15;9.60;99.90
13616;DHT22;6879;51.368;6.782;2022-11-23T09:16:44;9.60;99.90
13616;DHT22;6879;51.368;6.782;2022-11-23T09:19:14;9.60;99.90
13616;DHT22;6879;51.368;6.782;2022-11-23T09:21:43;9.70;99.90
13616;DHT22;6879;51.368;6.782;2022-11-23T09:24:12;9.70;99.90
13616;DHT22;6879;51.368;6.782;2022-11-23T09:26:47;9.70;99.90
13616;DHT22;6879;51.368;6.782;2022-11-23T09:29:21;9.80;99.90
13616;DHT22;6879;51.368;6.782;2022-11-23T09:31:53;9.80;99.90
13616;DHT22;6879;51.368;6.782;2022-11-23T09:34:31;9.90;99.90
13616;DHT22;6879;51.368;6.782;2022-11-23T09:37:02;9.90;99.90
13616;DHT22;6879;51.368;6.782;2022-11-23T09:39:33;9.90;99.90
13616;DHT22;6879;51.368;6.782;2022-11-23T09:42:21;9.90;99.90
13616;DHT22;6879;51.368;6.782;2022-11-23T09:45:07;9.90;99.90
13616;DHT22;6879;51.368;6.782;2022-11-23T09:51:45;10.00;99.90
13616;DHT22;6879;51.368;6.782;2022-11-23T09:54:56;10.00;99.50
13616;DHT22;6879;51.368;6.782;2022-11-23T10:01:15;10.10;99.40
13616;DHT22;6879;51.368;6.782;2022-11-23T10:04:34;10.10;98.80
13616;DHT22;6879;51.368;6.782;2022-11-23T10:07:18;10.10;98.20
13616;DHT22;6879;51.368;6.782;2022-11-23T10:09:59;10.10;98.50
13616;DHT22;6879;51.368;6.782;2022-11-23T10:12:47;10.10;98.00
13616;DHT22;6879;51.368;6.782;2022-11-23T10:15:22;10.10;97.90
13616;DHT22;6879;51.368;6.782;2022-11-23T10:18:13;10.10;98.00
13616;DHT22;6879;51.368;6.782;2022-11-23T10:21:12;10.20;97.80
13616;DHT22;6879;51.368;6.782;2022-11-23T10:23:53;10.20;97.40
13616;DHT22;6879;51.368;6.782;2022-11-23T10:26:27;10.30;97.40
13616;DHT22;6879;51.368;6.782;2022-11-23T10:29:10;10.30;97.20
13616;DHT22;6879;51.368;6.782;2022-11-23T10:31:44;10.40;97.10
13616;DHT22;6879;51.368;6.782;2022-11-23T10:34:25;10.40;96.70
13616;DHT22;6879;51.368;6.782;2022-11-23T10:36:58;10.60;96.70
13616;DHT22;6879;51.368;6.782;2022-11-23T10:39:28;10.60;96.40
13616;DHT22;6879;51.368;6.782;2022-11-23T10:42:02;10.50;96.10
13616;DHT22;6879;51.368;6.782;2022-11-23T10:44:36;10.50;96.30
13616;DHT22;6879;51.368;6.782;2022-11-23T10:47:05;10.60;95.90
13616;DHT22;6879;51.368;6.782;2022-11-23T10:49:34;10.50;94.90
13616;DHT22;6879;51.368;6.782;2022-11-23T10:52:05;10.50;95.30
13616;DHT22;6879;51.368;6.782;2022-11-23T10:54:39;10.50;95.20
13616;DHT22;6879;51.368;6.782;2022-11-23T10:57:21;10.60;95.50
13616;DHT22;6879;51.368;6.782;2022-11-23T10:59:57;10.70;95.00
13616;DHT22;6879;51.368;6.782;2022-11-23T11:02:27;10.80;95.30
13616;DHT22;6879;51.368;6.782;2022-11-23T11:05:28;11.00;95.10
13616;DHT22;6879;51.368;6.782;2022-11-23T11:08:20;11.20;94.10
13616;DHT22;6879;51.368;6.782;2022-11-23T11:10:59;11.40;93.60
13616;DHT22;6879;51.368;6.782;2022-11-23T11:13:30;11.70;92.70
13616;DHT22;6879;51.368;6.782;2022-11-23T11:16:01;12.10;91.70
13616;DHT22;6879;51.368;6.782;2022-11-23T11:18:32;12.40;90.50
13616;DHT22;6879;51.368;6.782;2022-11-23T11:21:05;13.00;89.50
13616;DHT22;6879;51.368;6.782;2022-11-23T11:23:42;13.20;88.40
13616;DHT22;6879;51.368;6.782;2022-11-23T11:26:24;13.40;88.20
13616;DHT22;6879;51.368;6.782;2022-11-23T11:28:56;13.10;87.80
13616;DHT22;6879;51.368;6.782;2022-11-23T11:31:40;13.50;87.70
13616;DHT22;6879;51.368;6.782;2022-11-23T11:34:23;13.90;86.50
13616;DHT22;6879;51.368;6.782;2022-11-23T11:36:58;13.80;86.20
13616;DHT22;6879;51.368;6.782;2022-11-23T11:39:38;14.40;85.50
13616;DHT22;6879;51.368;6.782;2022-11-23T11:42:16;14.80;84.20
13616;DHT22;6879;51.368;6.782;2022-11-23T11:44:47;14.80;84.00
13616;DHT22;6879;51.368;6.782;2022-11-23T11:47:25;15.10;83.30
13616;DHT22;6879;51.368;6.782;2022-11-23T11:49:58;15.70;82.40
13616;DHT22;6879;51.368;6.782;2022-11-23T11:52:32;16.00;80.90
13616;DHT22;6879;51.368;6.782;2022-11-23T11:55:10;14.60;82.30
13616;DHT22;6879;51.368;6.782;2022-11-23T11:57:44;13.20;85.30
13616;DHT22;6879;51.368;6.782;2022-11-23T12:00:17;12.70;87.00
13616;DHT22;6879;51.368;6.782;2022-11-23T12:02:56;12.40;87.50
13616;DHT22;6879;51.368;6.782;2022-11-23T12:05:35;12.40;87.80
13616;DHT22;6879;51.368;6.782;2022-11-23T12:08:09;12.80;87.80
13616;DHT22;6879;51.368;6.782;2022-11-23T12:18:49;13.00;86.80
13616;DHT22;6879;51.368;6.782;2022-11-23T12:21:54;12.90;87.30
13616;DHT22;6879;51.368;6.782;2022-11-23T12:24:58;12.70;87.00
13616;DHT22;6879;51.368;6.782;2022-11-23T12:35:28;11.90;89.30
13616;DHT22;6879;51.368;6.782;2022-11-23T12:38:05;11.90;89.30
13616;DHT22;6879;51.368;6.782;2022-11-23T12:40:53;12.00;89.20
13616;DHT22;6879;51.368;6.782;2022-11-23T12:43:27;12.00;89.60
13616;DHT22;6879;51.368;6.782;2022-11-23T12:46:13;12.30;89.20
13616;DHT22;6879;51.368;6.782;2022-11-23T12:48:58;13.40;87.20
13616;DHT22;6879;51.368;6.782;2022-11-23T12:51:35;13.90;85.00
13616;DHT22;6879;51.368;6.782;2022-11-23T12:54:30;13.20;85.90
13616;DHT22;6879;51.368;6.782;2022-11-23T12:57:09;12.60;87.30
13616;DHT22;6879;51.368;6.782;2022-11-23T12:59:44;13.60;85.70
13616;DHT22;6879;51.368;6.782;2022-11-23T13:08:39;15.80;80.10
13616;DHT22;6879;51.368;6.782;2022-11-23T13:14:47;15.10;81.20
13616;DHT22;6879;51.368;6.782;2022-11-23T13:17:28;15.50;79.60
13616;DHT22;6879;51.368;6.782;2022-11-23T13:20:22;15.20;80.10
13616;DHT22;6879;51.368;6.782;2022-11-23T13:22:55;15.10;80.40
13616;DHT22;6879;51.368;6.782;2022-11-23T13:25:29;15.30;79.80
13616;DHT22;6879;51.368;6.782;2022-11-23T13:28:03;15.90;79.40
13616;DHT22;6879;51.368;6.782;2022-11-23T13:30:35;16.10;78.60
13616;DHT22;6879;51.368;6.782;2022-11-23T13:33:27;15.60;79.30
13616;DHT22;6879;51.368;6.782;2022-11-23T13:36:03;15.60;79.70
13616;DHT22;6879;51.368;6.782;2022-11-23T13:38:43;16.00;79.20
13616;DHT22;6879;51.368;6.782;2022-11-23T13:44:28;15.40;80.30
13616;DHT22;6879;51.368;6.782;2022-11-23T13:47:26;14.80;81.60
13616;DHT22;6879;51.368;6.782;2022-11-23T13:52:51;14.10;83.30
13616;DHT22;6879;51.368;6.782;2022-11-23T13:56:37;13.70;84.00
13616;DHT22;6879;51.368;6.782;2022-11-23T13:59:32;12.80;86.20
13616;DHT22;6879;51.368;6.782;2022-11-23T14:02:27;12.80;86.70
13616;DHT22;6879;51.368;6.782;2022-11-23T14:08:12;12.40;87.00
13616;DHT22;6879;51.368;6.782;2022-11-23T14:10:44;12.50;87.50
13616;DHT22;6879;51.368;6.782;2022-11-23T14:13:16;12.70;86.60
13616;DHT22;6879;51.368;6.782;2022-11-23T14:15:54;13.00;86.10
13616;DHT22;6879;51.368;6.782;2022-11-23T14:18:49;12.90;85.60
13616;DHT22;6879;51.368;6.782;2022-11-23T14:21:31;12.50;86.80
13616;DHT22;6879;51.368;6.782;2022-11-23T14:24:34;12.00;88.00
13616;DHT22;6879;51.368;6.782;2022-11-23T14:27:23;11.60;89.30
13616;DHT22;6879;51.368;6.782;2022-11-23T14:30:43;11.30;90.00
13616;DHT22;6879;51.368;6.782;2022-11-23T14:33:31;11.20;90.80
13616;DHT22;6879;51.368;6.782;2022-11-23T14:36:15;11.00;91.30
13616;DHT22;6879;51.368;6.782;2022-11-23T14:39:10;10.90;91.60
13616;DHT22;6879;51.368;6.782;2022-11-23T14:41:52;10.70;92.00
13616;DHT22;6879;51.368;6.782;2022-11-23T14:44:25;10.70;92.50
13616;DHT22;6879;51.368;6.782;2022-11-23T14:47:02;10.70;92.70
13616;DHT22;6879;51.368;6.782;2022-11-23T14:49:36;10.60;92.90
13616;DHT22;6879;51.368;6.782;2022-11-23T14:52:19;10.70;92.90
13616;DHT22;6879;51.368;6.782;2022-11-23T14:54:50;10.70;93.00
13616;DHT22;6879;51.368;6.782;2022-11-23T14:57:21;10.70;93.10
13616;DHT22;6879;51.368;6.782;2022-11-23T15:00:26;10.70;93.10
13616;DHT22;6879;51.368;6.782;2022-11-23T15:03:02;10.70;93.10
13616;DHT22;6879;51.368;6.782;2022-11-23T15:05:59;10.60;93.30
13616;DHT22;6879;51.368;6.782;2022-11-23T15:08:46;10.60;93.30
13616;DHT22;6879;51.368;6.782;2022-11-23T15:11:19;10.60;93.30
13616;DHT22;6879;51.368;6.782;2022-11-23T15:13:50;10.60;93.30
13616;DHT22;6879;51.368;6.782;2022-11-23T15:16:20;10.60;93.10
13616;DHT22;6879;51.368;6.782;2022-11-23T15:18:52;10.60;93.30
13616;DHT22;6879;51.368;6.782;2022-11-23T15:22:15;10.60;94.40
13616;DHT22;6879;51.368;6.782;2022-11-23T15:25:04;10.30;95.80
13616;DHT22;6879;51.368;6.782;2022-11-23T15:27:42;10.10;96.80
13616;DHT22;6879;51.368;6.782;2022-11-23T15:30:25;10.10;96.80
13616;DHT22;6879;51.368;6.782;2022-11-23T15:32:56;10.10;96.40
13616;DHT22;6879;51.368;6.782;2022-11-23T15:35:29;10.10;97.30
13616;DHT22;6879;51.368;6.782;2022-11-23T15:38:00;10.00;99.00
13616;DHT22;6879;51.368;6.782;2022-11-23T15:40:34;9.80;99.90
13616;DHT22;6879;51.368;6.782;2022-11-23T15:43:21;9.60;99.90
13616;DHT22;6879;51.368;6.782;2022-11-23T15:46:08;9.40;99.90
13616;DHT22;6879;51.368;6.782;2022-11-23T15:48:41;9.20;99.90
13616;DHT22;6879;51.368;6.782;2022-11-23T15:51:25;9.00;99.90
13616;DHT22;6879;51.368;6.782;2022-11-23T15:53:59;8.90;99.90
13616;DHT22;6879;51.368;6.782;2022-11-23T15:56:30;8.80;99.90
13616;DHT22;6879;51.368;6.782;2022-11-23T15:59:26;8.70;99.90
13616;DHT22;6879;51.368;6.782;2022-11-23T16:02:33;8.70;99.90
13616;DHT22;6879;51.368;6.782;2022-11-23T16:05:12;8.60;99.90
13616;DHT22;6879;51.368;6.782;2022-11-23T16:08:01;8.50;99.90
13616;DHT22;6879;51.368;6.782;2022-11-23T16:11:29;8.50;99.90
13616;DHT22;6879;51.368;6.782;2022-11-23T16:14:39;8.40;99.90
13616;DHT22;6879;51.368;6.782;2022-11-23T16:18:04;8.30;99.90
13616;DHT22;6879;51.368;6.782;2022-11-23T16:21:31;8.30;99.90
13616;DHT22;6879;51.368;6.782;2022-11-23T16:31:59;8.30;99.90
13616;DHT22;6879;51.368;6.782;2022-11-23T16:34:29;8.30;99.90
13616;DHT22;6879;51.368;6.782;2022-11-23T16:37:03;8.20;99.90
13616;DHT22;6879;51.368;6.782;2022-11-23T16:40:13;8.20;99.90
13616;DHT22;6879;51.368;6.782;2022-11-23T16:50:25;8.10;99.90
13616;DHT22;6879;51.368;6.782;2022-11-23T16:53:13;8.10;99.90
13616;DHT22;6879;51.368;6.782;2022-11-23T16:56:38;8.10;99.90
13616;DHT22;6879;51.368;6.782;2022-11-23T16:59:35;8.20;99.90
13616;DHT22;6879;51.368;6.782;2022-11-23T17:02:33;8.10;99.90
13616;DHT22;6879;51.368;6.782;2022-11-23T17:05:22;8.10;99.90
13616;DHT22;6879;51.368;6.782;2022-11-23T17:08:03;8.20;99.90
13616;DHT22;6879;51.368;6.782;2022-11-23T17:11:00;8.10;99.90
13616;DHT22;6879;51.368;6.782;2022-11-23T17:13:35;8.10;99.90
13616;DHT22;6879;51.368;6.782;2022-11-23T17:16:49;8.10;99.90
13616;DHT22;6879;51.368;6.782;2022-11-23T17:19:20;8.10;99.90
13616;DHT22;6879;51.368;6.782;2022-11-23T17:22:21;8.10;99.90
13616;DHT22;6879;51.368;6.782;2022-11-23T17:24:58;8.10;99.90
13616;DHT22;6879;51.368;6.782;2022-11-23T17:27:40;8.10;99.90
13616;DHT22;6879;51.368;6.782;2022-11-23T17:30:13;8.10;99.90
13616;DHT22;6879;51.368;6.782;2022-11-23T17:32:42;8.10;99.90
13616;DHT22;6879;51.368;6.782;2022-11-23T17:35:11;8.10;99.90
13616;DHT22;6879;51.368;6.782;2022-11-23T17:37:39;8.10;99.90
13616;DHT22;6879;51.368;6.782;2022-11-23T17:40:15;8.10;99.90
13616;DHT22;6879;51.368;6.782;2022-11-23T17:42:44;8.10;99.90
13616;DHT22;6879;51.368;6.782;2022-11-23T17:45:13;8.10;99.90
13616;DHT22;6879;51.368;6.782;2022-11-23T17:47:43;8.10;99.90
13616;DHT22;6879;51.368;6.782;2022-11-23T17:50:14;8.10;99.90
13616;DHT22;6879;51.368;6.782;2022-11-23T17:52:45;8.10;99.90
13616;DHT22;6879;51.368;6.782;2022-11-23T17:55:16;8.00;99.90
13616;DHT22;6879;51.368;6.782;2022-11-23T17:57:45;8.00;99.90
13616;DHT22;6879;51.368;6.782;2022-11-23T18:00:16;8.00;99.90
13616;DHT22;6879;51.368;6.782;2022-11-23T18:02:46;7.90;99.90
13616;DHT22;6879;51.368;6.782;2022-11-23T18:05:15;7.90;99.90
13616;DHT22;6879;51.368;6.782;2022-11-23T18:07:49;7.90;99.90
13616;DHT22;6879;51.368;6.782;2022-11-23T18:10:20;7.80;99.90
13616;DHT22;6879;51.368;6.782;2022-11-23T18:12:48;7.80;99.90
13616;DHT22;6879;51.368;6.782;2022-11-23T18:15:17;7.80;99.90
13616;DHT22;6879;51.368;6.782;2022-11-23T18:17:45;7.90;99.90